createdAt,value
2018-06-12T00:01:26.086Z,9.10
2018-06-12T00:03:57.247Z,10.03
2018-06-12T00:06:27.562Z,10.70
2018-06-12T00:08:58.690Z,9.93
2018-06-12T00:11:29.080Z,10.30
2018-06-12T00:14:01.497Z,8.73
2018-06-12T00:16:31.869Z,7.23
2018-06-12T00:19:02.194Z,5.73
2018-06-12T00:21:32.749Z,4.17
2018-06-12T00:24:03.120Z,3.20
2018-06-12T00:26:33.523Z,3.00
2018-06-12T00:29:03.881Z,2.67
2018-06-12T00:31:34.253Z,3.07
2018-06-12T00:34:05.848Z,3.37
2018-06-12T00:36:38.970Z,3.17
2018-06-12T00:39:09.341Z,2.77
2018-06-12T00:41:41.476Z,2.40
2018-06-12T00:44:10.040Z,2.63
2018-06-12T00:46:40.408Z,2.10
2018-06-12T00:49:10.793Z,1.30
2018-06-12T00:51:43.640Z,0.97
2018-06-12T00:54:14.008Z,1.30
2018-06-12T00:59:49.788Z,1.00
2018-06-12T01:02:22.225Z,0.97
2018-06-12T01:04:53.353Z,1.33
2018-06-12T01:07:23.723Z,1.30
2018-06-12T01:09:54.114Z,1.60
2018-06-12T01:12:24.470Z,1.43
2018-06-12T01:14:54.835Z,1.20
2018-06-12T01:17:25.230Z,1.00
2018-06-12T01:19:55.583Z,0.87
2018-06-12T01:22:47.387Z,1.27
2018-06-12T01:25:17.762Z,1.10
2018-06-12T01:27:48.129Z,1.47
2018-06-12T01:30:18.523Z,1.03
2018-06-12T01:32:48.917Z,1.20
2018-06-12T01:35:22.457Z,2.10
2018-06-12T01:37:53.612Z,1.33
2018-06-12T01:40:24.755Z,1.57
2018-06-12T01:42:55.897Z,1.50
2018-06-12T01:45:27.029Z,1.40
2018-06-12T01:47:57.391Z,1.50
2018-06-12T01:50:27.947Z,1.43
2018-06-12T01:53:00.391Z,1.70
2018-06-12T01:55:30.756Z,1.77
2018-06-12T01:58:01.128Z,1.40
2018-06-12T02:00:31.512Z,1.43
2018-06-12T02:03:01.885Z,1.40
2018-06-12T02:05:32.255Z,1.30
2018-06-12T02:08:04.625Z,1.10
2018-06-12T02:10:34.991Z,1.53
2018-06-12T02:13:06.131Z,1.53
2018-06-12T02:15:36.512Z,1.63
2018-06-12T02:18:11.986Z,1.23
2018-06-12T02:20:42.320Z,1.40
2018-06-12T02:23:12.691Z,1.43
2018-06-12T02:25:43.052Z,1.60
2018-06-12T02:28:15.135Z,1.20
2018-06-12T02:30:45.513Z,1.37
2018-06-12T02:33:15.901Z,1.40
2018-06-12T02:35:47.056Z,1.20
2018-06-12T02:38:17.430Z,1.40
2018-06-12T02:40:47.796Z,1.53
2018-06-12T02:43:18.128Z,0.90
2018-06-12T02:45:49.286Z,1.70
2018-06-12T02:48:20.364Z,1.43
2018-06-12T02:50:50.691Z,1.40
2018-06-12T02:53:28.216Z,1.37
2018-06-12T02:55:59.243Z,1.53
2018-06-12T02:58:29.624Z,1.03
2018-06-12T03:00:59.988Z,1.00
2018-06-12T03:03:32.608Z,1.20
2018-06-12T03:06:02.977Z,1.57
2018-06-12T03:08:33.344Z,1.10
2018-06-12T03:11:03.739Z,1.20
2018-06-12T03:13:34.106Z,1.10
2018-06-12T03:16:04.468Z,1.30
2018-06-12T03:18:34.866Z,1.20
2018-06-12T03:21:06.008Z,1.33
2018-06-12T03:23:37.141Z,0.93
2018-06-12T03:26:08.171Z,0.97
2018-06-12T03:28:38.528Z,1.10
2018-06-12T03:31:08.902Z,1.30
2018-06-12T03:33:39.280Z,1.33
2018-06-12T03:36:10.419Z,1.10
2018-06-12T03:38:40.776Z,1.10
2018-06-12T03:41:11.154Z,1.10
2018-06-12T03:43:41.466Z,1.10
2018-06-12T03:46:11.834Z,1.00
2018-06-12T03:48:43.245Z,1.20
2018-06-12T03:51:13.611Z,1.30
2018-06-12T03:53:43.980Z,1.10
2018-06-12T03:56:16.409Z,1.03
2018-06-12T03:58:46.770Z,1.00
2018-06-12T04:01:35.494Z,1.27
2018-06-12T04:11:56.839Z,1.83
2018-06-12T04:14:27.969Z,1.73
2018-06-12T04:16:59.363Z,2.47
2018-06-12T04:19:29.695Z,2.13
2018-06-12T04:22:00.077Z,2.50
2018-06-12T04:24:30.445Z,2.70
2018-06-12T04:27:00.786Z,2.57
2018-06-12T04:29:31.868Z,2.70
2018-06-12T04:32:04.284Z,3.53
2018-06-12T04:34:34.671Z,3.40
2018-06-12T04:37:05.041Z,3.07
2018-06-12T04:39:35.352Z,3.90
2018-06-12T04:42:05.738Z,3.10
2018-06-12T04:44:36.099Z,3.47
2018-06-12T04:47:07.231Z,3.60
2018-06-12T04:49:38.374Z,3.60
2018-06-12T04:52:09.502Z,3.50
2018-06-12T04:54:39.898Z,4.70
2018-06-12T04:57:10.890Z,4.00
2018-06-12T04:59:42.022Z,4.10
2018-06-12T05:02:12.399Z,4.33
2018-06-12T05:04:42.804Z,4.03
2018-06-12T05:07:13.162Z,4.17
2018-06-12T05:10:02.920Z,4.23
2018-06-12T05:12:34.016Z,4.60
2018-06-12T05:15:04.391Z,4.67
2018-06-12T05:17:34.778Z,3.97
2018-06-12T05:20:05.811Z,4.37
2018-06-12T05:25:24.645Z,4.90
2018-06-12T05:27:54.953Z,4.83
2018-06-12T05:30:25.513Z,4.33
2018-06-12T05:32:57.938Z,4.30
2018-06-12T05:35:29.075Z,4.43
2018-06-12T05:37:59.433Z,5.40
2018-06-12T05:40:29.831Z,5.30
2018-06-12T05:43:00.193Z,5.07
2018-06-12T05:45:30.556Z,4.77
2018-06-12T05:48:00.954Z,5.47
2018-06-12T05:50:33.369Z,5.00
2018-06-12T05:53:03.677Z,6.57
2018-06-12T05:55:34.069Z,6.20
2018-06-12T05:58:04.443Z,7.00
2018-06-12T06:00:34.835Z,7.17
2018-06-12T06:03:05.224Z,8.53
2018-06-12T06:05:36.354Z,8.90
2018-06-12T06:08:07.495Z,8.73
2018-06-12T06:10:37.918Z,7.57
2018-06-12T06:13:08.268Z,7.97
2018-06-12T06:15:39.396Z,8.00
2018-06-12T06:18:10.498Z,8.57
2018-06-12T06:20:44.959Z,7.03
2018-06-12T06:23:16.248Z,6.65
2018-06-12T06:25:46.617Z,7.20
2018-06-12T06:28:16.979Z,8.23
2018-06-12T06:30:47.357Z,7.60
2018-06-12T06:33:17.701Z,6.67
2018-06-12T06:35:48.076Z,7.30
2018-06-12T06:38:18.454Z,8.13
2018-06-12T06:40:48.817Z,8.90
2018-06-12T06:43:19.186Z,7.80
2018-06-12T06:45:49.573Z,7.90
2018-06-12T06:48:19.944Z,8.27
2018-06-12T06:50:50.318Z,8.50
2018-06-12T06:53:20.716Z,8.50
2018-06-12T06:55:51.077Z,8.43
2018-06-12T06:58:21.441Z,8.30
2018-06-12T07:00:51.820Z,7.97
2018-06-12T07:03:22.949Z,8.53
2018-06-12T07:05:54.038Z,7.70
2018-06-12T07:08:26.469Z,7.90
2018-06-12T07:10:57.605Z,8.50
2018-06-12T07:13:28.741Z,7.73
2018-06-12T07:15:59.131Z,8.70
2018-06-12T07:18:50.909Z,8.50
2018-06-12T07:21:23.285Z,8.73
2018-06-12T07:23:54.410Z,9.33
2018-06-12T07:26:24.773Z,8.90
2018-06-12T07:28:55.174Z,9.23
2018-06-12T07:31:26.312Z,9.20
2018-06-12T07:33:56.683Z,8.30
2018-06-12T07:36:28.097Z,9.03
2018-06-12T07:38:58.466Z,9.37
2018-06-12T07:41:32.925Z,9.50
2018-06-12T07:44:03.320Z,7.53
2018-06-12T07:46:33.693Z,8.00
2018-06-12T07:49:04.069Z,7.23
2018-06-12T07:51:40.609Z,7.07
2018-06-12T07:54:11.170Z,7.00
2018-06-12T07:56:41.532Z,6.80
2018-06-12T07:59:11.926Z,6.20
2018-06-12T08:01:44.330Z,5.73
2018-06-12T08:04:14.637Z,5.97
2018-06-12T08:06:46.045Z,4.73
2018-06-12T08:09:16.407Z,5.50
2018-06-12T08:11:47.477Z,4.37
2018-06-12T08:14:17.874Z,4.40
2018-06-12T08:16:48.180Z,4.40
2018-06-12T08:19:19.269Z,3.53
2018-06-12T08:21:49.662Z,3.80
2018-06-12T08:24:26.161Z,4.30
2018-06-12T08:26:56.828Z,4.47
2018-06-12T08:29:27.953Z,4.40
2018-06-12T08:31:58.316Z,4.20
2018-06-12T08:34:28.711Z,4.83
2018-06-12T08:36:59.065Z,4.40
2018-06-12T08:39:29.423Z,4.60
2018-06-12T08:42:06.968Z,4.27
2018-06-12T08:44:37.335Z,4.40
2018-06-12T08:47:09.745Z,4.33
2018-06-12T08:49:40.139Z,4.53
2018-06-12T08:52:30.636Z,4.40
2018-06-12T08:55:06.131Z,4.70
2018-06-12T08:57:37.277Z,4.70
2018-06-12T09:00:07.588Z,4.93
2018-06-12T09:02:37.976Z,4.93
2018-06-12T09:05:09.059Z,4.87
2018-06-12T09:07:39.437Z,6.10
2018-06-12T09:10:10.860Z,4.90
2018-06-12T09:12:41.223Z,4.83
2018-06-12T09:15:30.979Z,5.33
2018-06-12T09:18:01.352Z,5.67
2018-06-12T09:20:31.731Z,5.20
2018-06-12T09:23:02.138Z,4.97
2018-06-12T09:25:33.280Z,4.87
2018-06-12T09:28:03.639Z,4.70
2018-06-12T09:30:34.029Z,4.77
2018-06-12T09:35:51.614Z,4.80
2018-06-12T09:38:22.941Z,4.60
2018-06-12T09:40:53.297Z,4.57
2018-06-12T09:43:23.687Z,4.73
2018-06-12T09:45:54.051Z,4.40
2018-06-12T09:48:24.415Z,4.53
2018-06-12T09:50:54.737Z,5.00
2018-06-12T09:53:25.105Z,4.60
2018-06-12T09:56:02.413Z,4.73
2018-06-12T09:58:34.817Z,4.57
2018-06-12T10:01:05.864Z,4.70
2018-06-12T10:03:36.245Z,4.50
2018-06-12T10:06:06.625Z,4.70
2018-06-12T10:08:36.989Z,5.00
2018-06-12T10:11:07.367Z,4.67
2018-06-12T10:13:37.740Z,4.37
2018-06-12T10:16:08.056Z,4.87
2018-06-12T10:18:38.432Z,4.70
2018-06-12T10:21:08.793Z,4.70
2018-06-12T10:23:39.170Z,5.27
2018-06-12T10:26:29.945Z,5.13
2018-06-12T10:29:00.308Z,6.82
2018-06-12T10:31:30.679Z,5.30
2018-06-12T10:34:01.068Z,5.30
2018-06-12T10:36:32.435Z,5.07
2018-06-12T10:39:08.519Z,4.97
2018-06-12T10:41:39.883Z,5.00
2018-06-12T10:44:10.248Z,4.67
2018-06-12T10:46:40.635Z,5.07
2018-06-12T10:49:11.008Z,5.00
2018-06-12T10:51:41.384Z,5.00
2018-06-12T10:54:12.035Z,5.40
2018-06-12T10:56:44.193Z,4.60
2018-06-12T10:59:14.560Z,5.20
2018-06-12T11:01:44.956Z,5.07
2018-06-12T11:04:17.376Z,5.03
2018-06-12T11:06:47.687Z,4.93
2018-06-12T11:09:18.090Z,5.00
2018-06-12T11:11:50.518Z,5.13
2018-06-12T11:14:20.882Z,4.60
2018-06-12T11:16:53.312Z,4.93
2018-06-12T11:19:23.690Z,4.43
2018-06-12T11:21:56.047Z,4.77
2018-06-12T11:24:26.429Z,4.63
2018-06-12T11:26:56.801Z,5.20
2018-06-12T11:29:27.241Z,5.07
2018-06-12T11:31:57.561Z,4.63
2018-06-12T11:34:29.978Z,4.53
2018-06-12T11:37:00.739Z,5.00
2018-06-12T11:39:32.146Z,4.80
2018-06-12T11:42:02.457Z,5.20
2018-06-12T11:44:35.510Z,5.37
2018-06-12T11:47:08.976Z,4.90
2018-06-12T11:49:39.339Z,4.40
2018-06-12T11:52:09.720Z,4.60
2018-06-12T11:54:40.106Z,4.77
2018-06-12T11:57:10.463Z,4.43
2018-06-12T11:59:43.583Z,4.87
2018-06-12T12:02:13.973Z,4.20
2018-06-12T12:04:45.370Z,4.40
2018-06-12T12:07:16.505Z,4.43
2018-06-12T12:09:48.686Z,4.30
2018-06-12T12:12:19.827Z,4.27
2018-06-12T12:14:50.958Z,4.50
2018-06-12T12:17:22.117Z,4.17
2018-06-12T12:19:52.491Z,4.30
2018-06-12T12:22:22.855Z,3.90
2018-06-12T12:24:54.007Z,4.27
2018-06-12T12:27:24.377Z,4.07
2018-06-12T12:29:54.752Z,4.20
2018-06-12T12:32:25.144Z,4.07
2018-06-12T12:34:56.151Z,4.80
2018-06-12T12:37:27.539Z,4.30
2018-06-12T12:39:57.932Z,4.30
2018-06-12T12:42:28.242Z,4.17
2018-06-12T12:44:58.613Z,4.27
2018-06-12T12:47:28.998Z,4.53
2018-06-12T12:49:59.306Z,4.63
2018-06-12T12:52:30.436Z,4.83
2018-06-12T12:55:00.853Z,4.57
2018-06-12T12:57:31.212Z,4.50
2018-06-12T13:00:01.577Z,4.50
2018-06-12T13:02:52.359Z,4.77
2018-06-12T13:05:22.731Z,4.43
2018-06-12T13:07:54.114Z,4.77
2018-06-12T13:10:24.518Z,5.07
2018-06-12T13:12:54.886Z,4.53
2018-06-12T13:15:25.194Z,4.40
2018-06-12T13:17:56.347Z,5.00
2018-06-12T13:20:27.478Z,4.37
2018-06-12T13:22:57.840Z,4.83
2018-06-12T13:25:32.327Z,4.83
2018-06-12T13:28:03.644Z,4.87
2018-06-12T13:30:34.018Z,4.87
2018-06-12T13:33:04.411Z,4.57
2018-06-12T13:35:34.781Z,4.30
2018-06-12T13:38:05.155Z,4.80
2018-06-12T13:40:35.552Z,5.10
2018-06-12T13:43:07.643Z,4.70
2018-06-12T13:45:38.021Z,4.63
2018-06-12T13:48:08.423Z,5.07
2018-06-12T13:50:38.793Z,4.60
2018-06-12T13:53:09.166Z,4.60
2018-06-12T13:58:29.750Z,4.03
2018-06-12T14:01:01.805Z,4.70
2018-06-12T14:03:39.314Z,4.50
2018-06-12T14:06:09.894Z,4.63
2018-06-12T14:08:40.268Z,5.03
2018-06-12T14:11:10.629Z,4.40
2018-06-12T14:13:41.015Z,5.03
2018-06-12T14:16:12.102Z,5.27
2018-06-12T14:18:43.228Z,5.20
2018-06-12T14:21:13.620Z,4.80
2018-06-12T14:23:46.019Z,5.27
2018-06-12T14:26:16.391Z,5.40
2018-06-12T14:28:46.767Z,5.23
2018-06-12T14:31:17.136Z,4.67
2018-06-12T14:33:48.281Z,5.03
2018-06-12T14:36:19.604Z,5.10
2018-06-12T14:38:49.966Z,5.17
2018-06-12T14:41:20.348Z,5.30
2018-06-12T14:43:50.727Z,5.20
2018-06-12T14:46:21.058Z,5.57
2018-06-12T14:48:51.405Z,5.20
2018-06-12T14:51:21.796Z,5.60
2018-06-12T14:53:52.348Z,5.20
2018-06-12T14:56:24.768Z,4.90
2018-06-12T14:58:55.901Z,5.33
2018-06-12T15:01:26.465Z,5.40
2018-06-12T15:03:56.821Z,5.37
2018-06-12T15:06:27.210Z,5.47
2018-06-12T15:08:57.572Z,5.50
2018-06-12T15:11:34.565Z,4.93
2018-06-12T15:14:05.946Z,5.60
2018-06-12T15:16:36.316Z,5.83
2018-06-12T15:19:06.701Z,6.33
2018-06-12T15:21:39.876Z,5.40
2018-06-12T15:24:10.243Z,6.00
2018-06-12T15:26:41.354Z,5.67
2018-06-12T15:29:11.680Z,6.30
2018-06-12T15:31:42.051Z,6.10
2018-06-12T15:34:12.440Z,6.33
2018-06-12T15:36:42.893Z,6.63
2018-06-12T15:39:13.273Z,7.67
2018-06-12T15:41:43.673Z,8.83
2018-06-12T15:44:14.041Z,8.93
2018-06-12T15:46:44.417Z,11.02
2018-06-12T15:49:16.868Z,9.30
2018-06-12T15:51:48.016Z,8.93
2018-06-12T15:54:18.394Z,10.03
2018-06-12T15:56:48.732Z,9.40
2018-06-12T15:59:19.093Z,9.23
2018-06-12T16:01:49.401Z,9.90
2018-06-12T16:04:20.575Z,10.03
2018-06-12T16:06:50.891Z,9.60
2018-06-12T16:09:21.264Z,9.23
2018-06-12T16:11:57.779Z,9.80
2018-06-12T16:14:28.917Z,9.73
2018-06-12T16:17:01.271Z,10.00
2018-06-12T16:19:31.663Z,11.73
2018-06-12T16:22:02.040Z,9.97
2018-06-12T16:24:33.170Z,14.60
2018-06-12T16:27:03.559Z,12.57
2018-06-12T16:29:35.915Z,11.50
2018-06-12T16:32:06.289Z,11.63
2018-06-12T16:34:39.278Z,11.27
2018-06-12T16:37:14.912Z,10.60
2018-06-12T16:39:48.049Z,9.83
2018-06-12T16:42:21.895Z,10.83
2018-06-12T16:44:52.282Z,10.73
2018-06-12T16:47:24.359Z,9.80
2018-06-12T16:49:54.747Z,9.63
2018-06-12T16:52:27.672Z,10.37
2018-06-12T16:54:58.068Z,9.73
2018-06-12T16:57:28.489Z,9.33
2018-06-12T17:02:49.280Z,9.30
2018-06-12T17:05:20.684Z,9.00
2018-06-12T17:07:50.997Z,9.20
2018-06-12T17:10:21.422Z,8.50
2018-06-12T17:12:54.445Z,8.47
2018-06-12T17:15:24.752Z,8.80
2018-06-12T17:17:55.137Z,9.03
2018-06-12T17:20:25.508Z,7.80
2018-06-12T17:22:55.881Z,8.90
2018-06-12T17:25:28.828Z,9.27
2018-06-12T17:27:59.220Z,8.50
2018-06-12T17:30:32.203Z,8.90
2018-06-12T17:33:02.592Z,9.70
2018-06-12T17:35:34.949Z,8.57
2018-06-12T17:38:06.344Z,9.67
2018-06-12T17:40:39.337Z,9.80
2018-06-12T17:43:09.707Z,9.47
2018-06-12T17:45:40.077Z,8.33
2018-06-12T17:48:10.665Z,8.20
2018-06-12T17:50:41.041Z,8.37
2018-06-12T17:53:11.454Z,8.37
2018-06-12T17:55:44.332Z,9.03
2018-06-12T17:58:16.939Z,8.63
2018-06-12T18:00:47.302Z,9.13
2018-06-12T18:03:21.409Z,9.00
2018-06-12T18:05:53.831Z,7.87
2018-06-12T18:08:25.225Z,7.83
2018-06-12T18:10:58.109Z,8.50
2018-06-12T18:13:28.482Z,8.57
2018-06-12T18:16:00.897Z,8.83
2018-06-12T18:18:32.105Z,8.33
2018-06-12T18:21:04.528Z,9.30
2018-06-12T18:23:34.933Z,8.77
2018-06-12T18:26:06.320Z,8.47
2018-06-12T18:28:36.700Z,9.63
2018-06-12T18:31:07.062Z,8.93
2018-06-12T18:33:39.900Z,9.33
2018-06-12T18:36:16.042Z,10.40
2018-06-12T18:38:49.255Z,8.67
2018-06-12T18:41:19.632Z,9.57
2018-06-12T18:43:50.076Z,9.87
2018-06-12T18:46:20.408Z,10.10
2018-06-12T18:48:50.967Z,10.97
2018-06-12T18:51:21.295Z,10.03
2018-06-12T18:53:55.628Z,11.10
2018-06-12T18:56:26.013Z,11.50
2018-06-12T18:58:58.987Z,11.23
2018-06-12T19:01:29.555Z,11.47
2018-06-12T19:03:59.919Z,12.67
2018-06-12T19:06:31.125Z,11.73
2018-06-12T19:09:01.607Z,12.80
2018-06-12T19:11:31.997Z,13.50
2018-06-12T19:14:02.386Z,13.37
2018-06-12T19:16:32.762Z,12.53
2018-06-12T19:19:03.841Z,13.20
2018-06-12T19:21:34.240Z,12.77
2018-06-12T19:24:04.626Z,11.87
2018-06-12T19:26:35.736Z,12.57
2018-06-12T19:29:06.132Z,12.27
2018-06-12T19:31:36.737Z,11.57
2018-06-12T19:34:09.595Z,12.67
2018-06-12T19:36:43.029Z,12.50
2018-06-12T19:39:16.070Z,11.87
2018-06-12T19:41:46.461Z,14.43
2018-06-12T19:44:20.586Z,12.87
2018-06-12T19:46:53.557Z,13.40
2018-06-12T19:49:23.943Z,13.37
2018-06-12T19:51:56.770Z,14.60
2018-06-12T19:54:31.214Z,14.03
2018-06-12T19:57:01.576Z,12.83
2018-06-12T20:02:20.189Z,14.47
2018-06-12T20:04:50.544Z,14.80
2018-06-12T20:07:23.975Z,14.00
2018-06-12T20:09:55.395Z,13.13
2018-06-12T20:12:25.777Z,14.37
2018-06-12T20:14:56.144Z,12.90
2018-06-12T20:17:27.241Z,14.43
2018-06-12T20:19:57.618Z,14.40
2018-06-12T20:22:28.015Z,14.50
2018-06-12T20:24:59.138Z,13.67
2018-06-12T20:27:31.939Z,14.97
2018-06-12T20:30:02.252Z,13.83
2018-06-12T20:32:32.644Z,14.70
2018-06-12T20:35:23.153Z,13.20
2018-06-12T20:37:54.561Z,14.53
2018-06-12T20:40:27.543Z,13.50
2018-06-12T20:42:58.678Z,12.50
2018-06-12T20:45:29.838Z,13.17
2018-06-12T20:48:00.466Z,11.93
2018-06-12T20:50:31.421Z,11.17
2018-06-12T20:53:01.817Z,12.17
2018-06-12T20:55:32.175Z,11.80
2018-06-12T20:58:02.546Z,10.40
2018-06-12T21:00:32.930Z,14.53
2018-06-12T21:03:03.297Z,11.83
2018-06-12T21:05:33.666Z,11.07
2018-06-12T21:08:04.066Z,12.75
2018-06-12T21:10:35.203Z,11.53
2018-06-12T21:13:05.574Z,11.50
2018-06-12T21:15:36.667Z,10.37
2018-06-12T21:18:07.041Z,12.03
2018-06-12T21:20:38.133Z,10.70
2018-06-12T21:23:08.536Z,12.23
2018-06-12T21:25:40.896Z,11.90
2018-06-12T21:28:15.563Z,11.07
2018-06-12T21:30:45.935Z,10.77
2018-06-12T21:33:27.255Z,10.00
2018-06-12T21:36:04.145Z,9.57
2018-06-12T21:38:34.539Z,10.20
2018-06-12T21:41:04.978Z,9.63
2018-06-12T21:43:41.087Z,8.90
2018-06-12T21:46:12.216Z,10.17
2018-06-12T21:48:42.579Z,9.23
2018-06-12T21:51:12.966Z,9.87
2018-06-12T21:53:43.329Z,9.27
2018-06-12T21:56:13.689Z,9.00
2018-06-12T21:59:03.447Z,9.70
2018-06-12T22:01:35.863Z,9.67
2018-06-12T22:04:06.909Z,8.33
2018-06-12T22:06:44.992Z,8.70
2018-06-12T22:09:15.349Z,9.57
2018-06-12T22:11:46.478Z,8.30
2018-06-12T22:14:16.873Z,7.53
2018-06-12T22:16:47.234Z,8.33
2018-06-12T22:19:18.631Z,7.33
2018-06-12T22:21:49.013Z,8.53
2018-06-12T22:24:19.380Z,7.73
2018-06-12T22:26:49.744Z,7.50
2018-06-12T22:29:38.481Z,7.90
2018-06-12T22:32:09.882Z,7.27
2018-06-12T22:34:40.228Z,7.57
2018-06-12T22:37:10.620Z,7.40
2018-06-12T22:39:40.934Z,7.30
2018-06-12T22:42:11.307Z,7.37
2018-06-12T22:44:42.473Z,6.90
2018-06-12T22:47:12.783Z,6.50
2018-06-12T22:49:43.156Z,7.07
2018-06-12T22:52:14.194Z,7.03
2018-06-12T22:54:44.559Z,6.80
2018-06-12T22:57:15.688Z,5.83
2018-06-12T22:59:46.077Z,6.40
2018-06-12T23:02:20.543Z,6.17
2018-06-12T23:04:51.618Z,6.60
2018-06-12T23:07:22.004Z,6.00
2018-06-12T23:09:52.365Z,6.27
2018-06-12T23:12:22.744Z,5.87
2018-06-12T23:14:55.163Z,5.53
2018-06-12T23:17:25.524Z,5.77
2018-06-12T23:19:55.897Z,5.23
2018-06-12T23:22:26.238Z,5.07
2018-06-12T23:24:56.605Z,5.70
2018-06-12T23:27:26.972Z,5.30
2018-06-12T23:29:58.128Z,5.30
2018-06-12T23:32:29.269Z,5.07
2018-06-12T23:35:00.401Z,5.53
2018-06-12T23:37:31.565Z,5.43
2018-06-12T23:40:02.121Z,5.53
2018-06-12T23:42:34.549Z,5.00
2018-06-12T23:45:04.953Z,4.97
2018-06-12T23:47:35.317Z,4.27
2018-06-12T23:50:06.440Z,4.57
2018-06-12T23:52:36.840Z,5.10
2018-06-12T23:55:07.204Z,5.23
2018-06-12T23:57:38.340Z,5.17
